createdAt,value
2023-12-05T00:00:20.026Z,16.79
2023-12-05T00:01:20.019Z,16.81
2023-12-05T00:02:19.980Z,16.79
2023-12-05T00:03:20.118Z,16.78
2023-12-05T00:04:20.161Z,16.78
2023-12-05T00:05:21.317Z,16.79
2023-12-05T00:06:20.557Z,16.76
2023-12-05T00:07:20.142Z,16.76
2023-12-05T00:08:19.924Z,16.75
2023-12-05T00:09:19.999Z,16.76
2023-12-05T00:10:19.896Z,16.76
2023-12-05T00:11:19.911Z,16.75
2023-12-05T00:12:19.896Z,16.76
2023-12-05T00:13:19.868Z,16.75
2023-12-05T00:14:19.861Z,16.75
2023-12-05T00:15:19.953Z,16.74
2023-12-05T00:16:19.855Z,16.74
2023-12-05T00:17:19.838Z,16.72
2023-12-05T00:18:19.929Z,16.74
2023-12-05T00:19:20.080Z,16.74
2023-12-05T00:20:19.792Z,16.74
2023-12-05T00:21:19.867Z,16.71
2023-12-05T00:22:19.763Z,16.72
2023-12-05T00:23:19.762Z,16.72
2023-12-05T00:24:19.809Z,16.72
2023-12-05T00:25:19.714Z,16.72
2023-12-05T00:26:19.726Z,16.71
2023-12-05T00:27:19.954Z,16.71
2023-12-05T00:28:19.709Z,16.72
2023-12-05T00:29:19.759Z,16.71
2023-12-05T00:30:19.706Z,16.69
2023-12-05T00:31:19.886Z,16.71
2023-12-05T00:32:21.207Z,16.72
2023-12-05T00:33:20.083Z,16.71
2023-12-05T00:34:20.792Z,16.69
2023-12-05T00:35:20.889Z,16.71
2023-12-05T00:36:20.068Z,16.69
2023-12-05T00:37:20.538Z,16.69
2023-12-05T00:38:19.608Z,16.68
2023-12-05T00:39:19.607Z,16.69
2023-12-05T00:40:19.713Z,16.68
2023-12-05T00:41:19.897Z,16.66
2023-12-05T00:42:19.578Z,16.66
2023-12-05T00:43:19.558Z,16.68
2023-12-05T00:44:19.540Z,16.71
2023-12-05T00:45:19.535Z,16.71
2023-12-05T00:46:19.698Z,16.68
2023-12-05T00:47:19.521Z,16.68
2023-12-05T00:48:19.571Z,16.66
2023-12-05T00:49:19.572Z,16.65
2023-12-05T00:50:21.069Z,16.65
2023-12-05T00:51:19.606Z,16.65
2023-12-05T00:52:19.496Z,16.64
2023-12-05T00:53:19.457Z,16.65
2023-12-05T00:54:19.419Z,16.65
2023-12-05T00:55:19.445Z,16.65
2023-12-05T00:56:19.444Z,16.65
2023-12-05T00:57:19.476Z,16.65
2023-12-05T00:58:19.392Z,16.65
2023-12-05T00:59:19.390Z,16.64
2023-12-05T01:00:19.368Z,16.65
2023-12-05T01:01:19.357Z,16.65
2023-12-05T01:02:19.383Z,16.66
2023-12-05T01:03:21.118Z,16.65
2023-12-05T01:04:19.413Z,16.64
2023-12-05T01:05:19.566Z,16.64
2023-12-05T01:06:19.370Z,16.61
2023-12-05T01:07:19.326Z,16.64
2023-12-05T01:08:19.292Z,16.64
2023-12-05T01:09:19.833Z,16.64
2023-12-05T01:10:19.339Z,16.65
2023-12-05T01:11:19.241Z,16.65
2023-12-05T01:12:19.252Z,16.64
2023-12-05T01:13:19.263Z,16.64
2023-12-05T01:14:19.226Z,16.68
2023-12-05T01:15:19.281Z,16.66
2023-12-05T01:16:19.176Z,16.68
2023-12-05T01:17:19.163Z,16.68
2023-12-05T01:18:19.318Z,16.69
2023-12-05T01:19:19.244Z,16.68
2023-12-05T01:20:19.147Z,16.68
2023-12-05T01:21:19.165Z,16.69
2023-12-05T01:22:19.884Z,16.69
2023-12-05T01:23:19.150Z,16.71
2023-12-05T01:24:19.155Z,16.71
2023-12-05T01:25:19.125Z,16.72
2023-12-05T01:26:19.071Z,16.72
2023-12-05T01:27:19.090Z,16.72
2023-12-05T01:28:19.070Z,16.74
2023-12-05T01:29:20.778Z,16.74
2023-12-05T01:30:19.263Z,16.76
2023-12-05T01:31:19.678Z,16.76
2023-12-05T01:32:19.025Z,16.78
2023-12-05T01:33:19.152Z,16.76
2023-12-05T01:34:19.190Z,16.78
2023-12-05T01:35:20.704Z,16.78
2023-12-05T01:36:19.064Z,16.78
2023-12-05T01:37:18.953Z,16.76
2023-12-05T01:38:19.123Z,16.78
2023-12-05T01:39:18.960Z,16.78
2023-12-05T01:40:18.962Z,16.78
2023-12-05T01:41:19.168Z,16.78
2023-12-05T01:42:18.936Z,16.76
2023-12-05T01:43:18.920Z,16.76
2023-12-05T01:44:18.901Z,16.76
2023-12-05T01:45:18.877Z,16.76
2023-12-05T01:46:18.872Z,16.75
2023-12-05T01:47:18.871Z,16.74
2023-12-05T01:48:19.031Z,16.75
2023-12-05T01:49:23.189Z,16.74
2023-12-05T01:50:19.855Z,16.75
2023-12-05T01:51:18.886Z,16.72
2023-12-05T01:52:18.806Z,16.74
2023-12-05T01:53:18.794Z,16.71
2023-12-05T01:54:18.824Z,16.69
2023-12-05T01:55:18.765Z,16.71
2023-12-05T01:56:18.754Z,16.71
2023-12-05T01:57:18.767Z,16.69
2023-12-05T01:58:18.727Z,16.69
2023-12-05T01:59:18.725Z,16.69
2023-12-05T02:00:18.749Z,16.69
2023-12-05T02:01:18.674Z,16.66
2023-12-05T02:02:18.681Z,16.66
2023-12-05T02:03:18.818Z,16.68
2023-12-05T02:04:18.757Z,16.66
2023-12-05T02:05:18.808Z,16.66
2023-12-05T02:06:18.668Z,16.66
2023-12-05T02:07:18.617Z,16.65
2023-12-05T02:08:19.789Z,16.65
2023-12-05T02:09:23.026Z,16.65
2023-12-05T02:10:20.303Z,16.64
2023-12-05T02:11:18.589Z,16.64
2023-12-05T02:12:18.572Z,16.64
2023-12-05T02:13:18.585Z,16.61
2023-12-05T02:14:18.536Z,16.61
2023-12-05T02:15:18.548Z,16.61
2023-12-05T02:16:18.568Z,16.60
2023-12-05T02:17:18.498Z,16.60
2023-12-05T02:18:18.667Z,16.58
2023-12-05T02:19:18.549Z,16.57
2023-12-05T02:20:18.501Z,16.58
2023-12-05T02:21:18.709Z,16.58
2023-12-05T02:22:18.456Z,16.58
2023-12-05T02:23:18.467Z,16.57
2023-12-05T02:24:18.443Z,16.57
2023-12-05T02:25:18.475Z,16.57
2023-12-05T02:26:18.425Z,16.57
2023-12-05T02:27:18.447Z,16.57
2023-12-05T02:28:18.369Z,16.56
2023-12-05T02:29:18.440Z,16.56
2023-12-05T02:30:18.402Z,16.56
2023-12-05T02:31:18.362Z,16.54
2023-12-05T02:32:18.346Z,16.56
2023-12-05T02:33:18.508Z,16.54
2023-12-05T02:34:18.432Z,16.54
2023-12-05T02:35:18.336Z,16.54
2023-12-05T02:36:18.329Z,16.54
2023-12-05T02:37:18.319Z,16.54
2023-12-05T02:38:18.285Z,16.53
2023-12-05T02:39:18.363Z,16.53
2023-12-05T02:40:18.274Z,16.53
2023-12-05T02:41:18.271Z,16.54
2023-12-05T02:42:18.341Z,16.53
2023-12-05T02:43:18.237Z,16.53
2023-12-05T02:44:19.467Z,16.51
2023-12-05T02:45:18.277Z,16.51
2023-12-05T02:46:18.217Z,16.53
2023-12-05T02:47:18.220Z,16.51
2023-12-05T02:48:18.277Z,16.53
2023-12-05T02:49:18.285Z,16.51
2023-12-05T02:50:18.156Z,16.51
2023-12-05T02:51:20.682Z,16.51
2023-12-05T02:52:18.126Z,16.53
2023-12-05T02:53:18.111Z,16.54
2023-12-05T02:54:18.149Z,16.51
2023-12-05T02:55:18.165Z,16.53
2023-12-05T02:56:18.101Z,16.53
2023-12-05T02:57:18.177Z,16.51
2023-12-05T02:58:18.066Z,16.53
2023-12-05T02:59:18.089Z,16.53
2023-12-05T03:00:18.083Z,16.53
2023-12-05T03:01:18.099Z,16.53
2023-12-05T03:02:18.100Z,16.53
2023-12-05T03:03:18.260Z,16.53
2023-12-05T03:04:18.181Z,16.54
2023-12-05T03:05:18.074Z,16.54
2023-12-05T03:06:18.079Z,16.54
2023-12-05T03:07:17.992Z,16.54
2023-12-05T03:08:17.999Z,16.53
2023-12-05T03:09:17.983Z,16.54
2023-12-05T03:10:17.977Z,16.54
2023-12-05T03:11:17.977Z,16.54
2023-12-05T03:12:17.939Z,16.54
2023-12-05T03:13:17.918Z,16.54
2023-12-05T03:14:17.915Z,16.54
2023-12-05T03:15:17.897Z,16.54
2023-12-05T03:16:18.005Z,16.53
2023-12-05T03:17:17.890Z,16.56
2023-12-05T03:18:17.951Z,16.56
2023-12-05T03:19:17.959Z,16.56
2023-12-05T03:20:17.838Z,16.56
2023-12-05T03:21:17.826Z,16.57
2023-12-05T03:22:17.803Z,16.56
2023-12-05T03:23:17.800Z,16.57
2023-12-05T03:24:17.817Z,16.56
2023-12-05T03:25:17.818Z,16.56
2023-12-05T03:26:17.804Z,16.56
2023-12-05T03:27:17.801Z,16.56
2023-12-05T03:28:17.746Z,16.56
2023-12-05T03:29:17.765Z,16.57
2023-12-05T03:30:17.767Z,16.56
2023-12-05T03:31:17.708Z,16.56
2023-12-05T03:32:17.706Z,16.56
2023-12-05T03:33:17.789Z,16.57
2023-12-05T03:34:17.720Z,16.57
2023-12-05T03:35:17.688Z,16.56
2023-12-05T03:36:17.709Z,16.56
2023-12-05T03:37:17.672Z,16.56
2023-12-05T03:38:17.651Z,16.54
2023-12-05T03:39:17.659Z,16.56
2023-12-05T03:40:17.656Z,16.54
2023-12-05T03:41:17.611Z,16.56
2023-12-05T03:42:17.627Z,16.54
2023-12-05T03:43:17.614Z,16.56
2023-12-05T03:44:17.585Z,16.56
2023-12-05T03:45:17.605Z,16.54
2023-12-05T03:46:17.588Z,16.56
2023-12-05T03:47:17.573Z,16.56
2023-12-05T03:48:17.752Z,16.54
2023-12-05T03:49:17.596Z,16.56
2023-12-05T03:50:17.514Z,16.54
2023-12-05T03:51:17.540Z,16.53
2023-12-05T03:52:17.487Z,16.53
2023-12-05T03:53:17.467Z,16.56
2023-12-05T03:54:17.485Z,16.56
2023-12-05T03:55:17.459Z,16.54
2023-12-05T03:56:17.453Z,16.54
2023-12-05T03:57:17.479Z,16.51
2023-12-05T03:58:17.425Z,16.53
2023-12-05T03:59:17.430Z,16.51
2023-12-05T04:00:17.437Z,16.53
2023-12-05T04:01:17.449Z,16.53
2023-12-05T04:02:17.397Z,16.51
2023-12-05T04:03:17.681Z,16.51
2023-12-05T04:04:17.477Z,16.53
2023-12-05T04:05:17.470Z,16.53
2023-12-05T04:06:17.376Z,16.53
2023-12-05T04:07:17.369Z,16.53
2023-12-05T04:08:17.330Z,16.53
2023-12-05T04:09:17.360Z,16.53
2023-12-05T04:10:17.282Z,16.53
2023-12-05T04:11:17.285Z,16.53
2023-12-05T04:12:17.299Z,16.53
2023-12-05T04:13:17.303Z,16.53
2023-12-05T04:14:17.266Z,16.53
2023-12-05T04:15:17.309Z,16.53
2023-12-05T04:16:17.229Z,16.51
2023-12-05T04:17:17.261Z,16.53
2023-12-05T04:18:17.476Z,16.53
2023-12-05T04:19:17.299Z,16.53
2023-12-05T04:20:17.200Z,16.53
2023-12-05T04:21:17.216Z,16.53
2023-12-05T04:22:17.160Z,16.51
2023-12-05T04:23:17.325Z,16.51
2023-12-05T04:24:17.183Z,16.53
2023-12-05T04:25:17.143Z,16.51
2023-12-05T04:26:17.118Z,16.51
2023-12-05T04:27:17.174Z,16.51
2023-12-05T04:28:17.093Z,16.53
2023-12-05T04:29:17.101Z,16.53
2023-12-05T04:30:18.180Z,16.53
2023-12-05T04:31:17.087Z,16.53
2023-12-05T04:32:17.045Z,16.51
2023-12-05T04:33:17.233Z,16.51
2023-12-05T04:34:17.117Z,16.51
2023-12-05T04:35:17.064Z,16.51
2023-12-05T04:36:17.082Z,16.51
2023-12-05T04:37:17.024Z,16.51
2023-12-05T04:38:16.986Z,16.51
2023-12-05T04:39:16.980Z,16.50
2023-12-05T04:40:16.981Z,16.51
2023-12-05T04:41:16.968Z,16.51
2023-12-05T04:42:16.982Z,16.51
2023-12-05T04:43:16.949Z,16.51
2023-12-05T04:44:16.927Z,16.50
2023-12-05T04:45:16.954Z,16.51
2023-12-05T04:46:16.916Z,16.51
2023-12-05T04:47:16.902Z,16.51
2023-12-05T04:48:16.999Z,16.51
2023-12-05T04:49:16.954Z,16.50
2023-12-05T04:50:16.866Z,16.50
2023-12-05T04:51:16.886Z,16.50
2023-12-05T04:52:16.819Z,16.49
2023-12-05T04:53:16.837Z,16.49
2023-12-05T04:54:16.873Z,16.50
2023-12-05T04:55:16.809Z,16.50
2023-12-05T04:56:16.785Z,16.49
2023-12-05T04:57:16.846Z,16.49
2023-12-05T04:58:16.781Z,16.49
2023-12-05T04:59:16.787Z,16.49
2023-12-05T05:00:16.796Z,16.50
2023-12-05T05:01:16.731Z,16.49
2023-12-05T05:02:16.798Z,16.49
2023-12-05T05:03:16.849Z,16.49
2023-12-05T05:04:16.874Z,16.47
2023-12-05T05:05:16.856Z,16.47
2023-12-05T05:06:16.746Z,16.49
2023-12-05T05:07:16.704Z,16.49
2023-12-05T05:08:16.671Z,16.47
2023-12-05T05:09:16.734Z,16.47
2023-12-05T05:10:16.643Z,16.47
2023-12-05T05:11:16.620Z,16.47
2023-12-05T05:12:16.693Z,16.43
2023-12-05T05:13:16.810Z,16.43
2023-12-05T05:14:16.632Z,16.47
2023-12-05T05:15:16.654Z,16.46
2023-12-05T05:16:16.580Z,16.43
2023-12-05T05:17:16.581Z,16.43
2023-12-05T05:18:16.582Z,16.43
2023-12-05T05:19:17.265Z,16.43
2023-12-05T05:20:16.562Z,16.43
2023-12-05T05:21:16.575Z,16.46
2023-12-05T05:22:16.506Z,16.43
2023-12-05T05:23:16.516Z,16.43
2023-12-05T05:24:16.628Z,16.43
2023-12-05T05:25:16.785Z,16.43
2023-12-05T05:26:16.470Z,16.42
2023-12-05T05:27:16.503Z,16.43
2023-12-05T05:28:16.421Z,16.43
2023-12-05T05:29:16.438Z,16.43
2023-12-05T05:30:16.531Z,16.43
2023-12-05T05:31:16.501Z,16.43
2023-12-05T05:32:16.458Z,16.43
2023-12-05T05:33:16.546Z,16.42
2023-12-05T05:34:16.370Z,16.42
2023-12-05T05:35:16.398Z,16.41
2023-12-05T05:36:16.422Z,16.42
2023-12-05T05:37:16.360Z,16.42
2023-12-05T05:38:16.359Z,16.43
2023-12-05T05:39:16.378Z,16.42
2023-12-05T05:40:16.320Z,16.43
2023-12-05T05:41:16.299Z,16.43
2023-12-05T05:42:16.309Z,16.43
2023-12-05T05:43:16.265Z,16.43
2023-12-05T05:44:16.243Z,16.43
2023-12-05T05:45:16.379Z,16.43
2023-12-05T05:46:16.243Z,16.42
2023-12-05T05:47:16.279Z,16.42
2023-12-05T05:48:16.290Z,16.43
2023-12-05T05:49:16.258Z,16.43
2023-12-05T05:50:18.728Z,16.43
2023-12-05T05:51:16.233Z,16.43
2023-12-05T05:52:16.202Z,16.46
2023-12-05T05:53:16.251Z,16.46
2023-12-05T05:54:16.192Z,16.43
2023-12-05T05:55:16.140Z,16.43
2023-12-05T05:56:16.187Z,16.46
2023-12-05T05:57:16.118Z,16.46
2023-12-05T05:58:16.110Z,16.46
2023-12-05T05:59:16.082Z,16.46
2023-12-05T06:00:16.154Z,16.46
2023-12-05T06:01:16.084Z,16.47
2023-12-05T06:02:16.108Z,16.46
2023-12-05T06:03:17.110Z,16.43
2023-12-05T06:04:16.122Z,16.43
2023-12-05T06:05:16.171Z,16.43
2023-12-05T06:06:16.305Z,16.46
2023-12-05T06:07:18.098Z,16.43
2023-12-05T06:08:15.996Z,16.46
2023-12-05T06:09:16.063Z,16.46
2023-12-05T06:10:15.967Z,16.47
2023-12-05T06:11:15.968Z,16.47
2023-12-05T06:12:15.978Z,16.46
2023-12-05T06:13:15.946Z,16.47
2023-12-05T06:14:15.962Z,16.46
2023-12-05T06:15:16.905Z,16.46
2023-12-05T06:16:15.912Z,16.46
2023-12-05T06:17:15.885Z,16.46
2023-12-05T06:18:16.011Z,16.47
2023-12-05T06:19:15.903Z,16.46
2023-12-05T06:20:15.901Z,16.46
2023-12-05T06:21:16.004Z,16.46
2023-12-05T06:22:15.878Z,16.43
2023-12-05T06:23:15.854Z,16.46
2023-12-05T06:24:15.902Z,16.46
2023-12-05T06:25:15.858Z,16.46
2023-12-05T06:26:15.806Z,16.47
2023-12-05T06:27:16.010Z,16.46
2023-12-05T06:28:15.780Z,16.46
2023-12-05T06:29:15.785Z,16.46
2023-12-05T06:30:21.663Z,16.46
2023-12-05T06:31:17.536Z,16.43
2023-12-05T06:32:15.758Z,16.46
2023-12-05T06:33:15.793Z,16.43
2023-12-05T06:34:15.765Z,16.46
2023-12-05T06:35:15.745Z,16.43
2023-12-05T06:36:15.702Z,16.43
2023-12-05T06:37:15.714Z,16.43
2023-12-05T06:38:15.717Z,16.43
2023-12-05T06:39:15.710Z,16.43
2023-12-05T06:40:15.653Z,16.42
2023-12-05T06:41:15.676Z,16.43
2023-12-05T06:42:15.660Z,16.43
2023-12-05T06:43:15.625Z,16.42
2023-12-05T06:44:15.693Z,16.42
2023-12-05T06:45:15.647Z,16.43
2023-12-05T06:46:15.693Z,16.42
2023-12-05T06:47:15.656Z,16.42
2023-12-05T06:48:15.556Z,16.42
2023-12-05T06:49:15.606Z,16.41
2023-12-05T06:50:15.558Z,16.43
2023-12-05T06:51:15.531Z,16.43
2023-12-05T06:52:15.549Z,16.42
2023-12-05T06:53:15.510Z,16.43
2023-12-05T06:54:15.513Z,16.43
2023-12-05T06:55:15.492Z,16.43
2023-12-05T06:56:15.471Z,16.42
2023-12-05T06:57:15.452Z,16.42
2023-12-05T06:58:15.496Z,16.42
2023-12-05T06:59:15.463Z,16.41
2023-12-05T07:00:15.444Z,16.42
2023-12-05T07:01:15.430Z,16.42
2023-12-05T07:02:15.406Z,16.42
2023-12-05T07:03:15.614Z,16.42
2023-12-05T07:04:15.520Z,16.41
2023-12-05T07:05:15.555Z,16.42
2023-12-05T07:06:15.442Z,16.41
2023-12-05T07:07:15.381Z,16.41
2023-12-05T07:08:15.348Z,16.41
2023-12-05T07:09:15.346Z,16.41
2023-12-05T07:10:15.324Z,16.41
2023-12-05T07:11:15.371Z,16.41
2023-12-05T07:12:15.343Z,16.41
2023-12-05T07:13:15.286Z,16.39
2023-12-05T07:14:15.264Z,16.42
2023-12-05T07:15:15.284Z,16.41
2023-12-05T07:16:15.400Z,16.39
2023-12-05T07:17:15.242Z,16.39
2023-12-05T07:18:15.258Z,16.39
2023-12-05T07:19:15.302Z,16.38
2023-12-05T07:20:15.273Z,16.39
2023-12-05T07:21:15.280Z,16.39
2023-12-05T07:22:15.200Z,16.39
2023-12-05T07:23:15.176Z,16.41
2023-12-05T07:24:15.191Z,16.39
2023-12-05T07:25:15.274Z,16.39
2023-12-05T07:26:15.213Z,16.39
2023-12-05T07:27:15.198Z,16.39
2023-12-05T07:28:15.257Z,16.39
2023-12-05T07:29:15.127Z,16.39
2023-12-05T07:30:15.165Z,16.41
2023-12-05T07:31:15.120Z,16.41
2023-12-05T07:32:15.119Z,16.41
2023-12-05T07:33:15.273Z,16.39
2023-12-05T07:34:15.149Z,16.39
2023-12-05T07:35:15.307Z,16.39
2023-12-05T07:36:15.090Z,16.39
2023-12-05T07:37:15.045Z,16.41
2023-12-05T07:38:15.045Z,16.39
2023-12-05T07:39:15.036Z,16.41
2023-12-05T07:40:14.976Z,16.39
2023-12-05T07:41:14.977Z,16.41
2023-12-05T07:42:15.029Z,16.41
2023-12-05T07:43:14.952Z,16.39
2023-12-05T07:44:14.956Z,16.39
2023-12-05T07:45:14.922Z,16.39
2023-12-05T07:46:14.977Z,16.41
2023-12-05T07:47:14.937Z,16.39
2023-12-05T07:48:14.962Z,16.39
2023-12-05T07:49:14.960Z,16.38
2023-12-05T07:50:14.880Z,16.38
2023-12-05T07:51:14.881Z,16.38
2023-12-05T07:52:14.850Z,16.39
2023-12-05T07:53:14.838Z,16.39
2023-12-05T07:54:14.876Z,16.39
2023-12-05T07:55:14.850Z,16.39
2023-12-05T07:56:14.810Z,16.39
2023-12-05T07:57:14.857Z,16.39
2023-12-05T07:58:14.810Z,16.38
2023-12-05T07:59:14.988Z,16.38
2023-12-05T08:00:14.765Z,16.38
2023-12-05T08:01:14.783Z,16.38
2023-12-05T08:02:14.753Z,16.39
2023-12-05T08:03:14.848Z,16.39
2023-12-05T08:04:14.833Z,16.39
2023-12-05T08:05:14.816Z,16.39
2023-12-05T08:06:14.716Z,16.39
2023-12-05T08:07:14.723Z,16.41
2023-12-05T08:08:14.689Z,16.41
2023-12-05T08:09:14.704Z,16.41
2023-12-05T08:10:14.677Z,16.39
2023-12-05T08:11:14.671Z,16.39
2023-12-05T08:12:14.654Z,16.41
2023-12-05T08:13:14.630Z,16.41
2023-12-05T08:14:14.686Z,16.41
2023-12-05T08:15:14.596Z,16.38
2023-12-05T08:16:14.608Z,16.39
2023-12-05T08:17:14.656Z,16.39
2023-12-05T08:18:14.593Z,16.39
2023-12-05T08:19:14.644Z,16.39
2023-12-05T08:20:14.560Z,16.39
2023-12-05T08:21:14.528Z,16.41
2023-12-05T08:22:14.561Z,16.41
2023-12-05T08:23:17.208Z,16.41
2023-12-05T08:24:14.689Z,16.41
2023-12-05T08:25:14.498Z,16.41
2023-12-05T08:26:14.549Z,16.41
2023-12-05T08:27:14.458Z,16.39
2023-12-05T08:28:14.516Z,16.41
2023-12-05T08:29:14.461Z,16.41
2023-12-05T08:30:14.676Z,16.41
2023-12-05T08:31:14.431Z,16.41
2023-12-05T08:32:14.444Z,16.41
2023-12-05T08:33:14.431Z,16.41
2023-12-05T08:34:14.515Z,16.41
2023-12-05T08:35:14.456Z,16.41
2023-12-05T08:36:14.424Z,16.42
2023-12-05T08:37:14.370Z,16.42
2023-12-05T08:38:14.379Z,16.42
2023-12-05T08:39:14.358Z,16.42
2023-12-05T08:40:14.353Z,16.42
2023-12-05T08:41:14.324Z,16.43
2023-12-05T08:42:14.346Z,16.41
2023-12-05T08:43:14.342Z,16.41
2023-12-05T08:44:14.299Z,16.42
2023-12-05T08:45:14.336Z,16.43
2023-12-05T08:46:14.376Z,16.42
2023-12-05T08:47:14.236Z,16.43
2023-12-05T08:48:14.317Z,16.46
2023-12-05T08:49:14.348Z,16.43
2023-12-05T08:50:14.225Z,16.46
2023-12-05T08:51:16.076Z,16.43
2023-12-05T08:52:14.670Z,16.43
2023-12-05T08:53:14.310Z,16.43
2023-12-05T08:54:14.323Z,16.46
2023-12-05T08:55:14.153Z,16.43
2023-12-05T08:56:14.227Z,16.43
2023-12-05T08:57:14.176Z,16.47
2023-12-05T08:58:14.176Z,16.46
2023-12-05T08:59:14.110Z,16.46
2023-12-05T09:00:14.138Z,16.46
2023-12-05T09:01:14.194Z,16.46
2023-12-05T09:02:14.115Z,16.46
2023-12-05T09:03:14.107Z,16.43
2023-12-05T09:04:14.226Z,16.46
2023-12-05T09:05:14.241Z,16.46
2023-12-05T09:06:14.275Z,16.46
2023-12-05T09:07:14.172Z,16.47
2023-12-05T09:08:14.143Z,16.46
2023-12-05T09:09:14.021Z,16.46
2023-12-05T09:10:14.054Z,16.46
2023-12-05T09:11:13.999Z,16.46
2023-12-05T09:12:13.999Z,16.43
2023-12-05T09:13:13.957Z,16.46
2023-12-05T09:14:14.015Z,16.42
2023-12-05T09:15:14.072Z,16.43
2023-12-05T09:16:14.004Z,16.43
2023-12-05T09:17:13.945Z,16.46
2023-12-05T09:18:14.019Z,16.43
2023-12-05T09:19:14.037Z,16.46
2023-12-05T09:20:13.929Z,16.42
2023-12-05T09:21:14.148Z,16.43
2023-12-05T09:22:13.890Z,16.43
2023-12-05T09:23:13.889Z,16.42
2023-12-05T09:24:13.879Z,16.43
2023-12-05T09:25:13.863Z,16.42
2023-12-05T09:26:13.892Z,16.43
2023-12-05T09:27:13.890Z,16.42
2023-12-05T09:28:13.896Z,16.42
2023-12-05T09:29:13.889Z,16.42
2023-12-05T09:30:13.797Z,16.42
2023-12-05T09:31:13.798Z,16.42
2023-12-05T09:32:13.780Z,16.43
2023-12-05T09:33:13.823Z,16.42
2023-12-05T09:34:13.840Z,16.43
2023-12-05T09:35:13.746Z,16.46
2023-12-05T09:36:13.767Z,16.43
2023-12-05T09:37:14.281Z,16.43
2023-12-05T09:38:13.780Z,16.47
2023-12-05T09:39:13.701Z,16.50
2023-12-05T09:40:13.665Z,16.53
2023-12-05T09:41:13.743Z,16.53
2023-12-05T09:42:13.728Z,16.53
2023-12-05T09:43:13.689Z,16.50
2023-12-05T09:44:13.663Z,16.43
2023-12-05T09:45:13.917Z,16.38
2023-12-05T09:46:13.633Z,16.32
2023-12-05T09:47:13.655Z,16.29
2023-12-05T09:48:13.809Z,16.26
2023-12-05T09:49:13.965Z,16.24
2023-12-05T09:50:13.695Z,16.23
2023-12-05T09:51:13.565Z,16.23
2023-12-05T09:52:13.577Z,16.23
2023-12-05T09:53:13.531Z,16.24
2023-12-05T09:54:13.551Z,16.26
2023-12-05T09:55:13.513Z,16.26
2023-12-05T09:56:13.508Z,16.26
2023-12-05T09:57:13.501Z,16.28
2023-12-05T09:58:13.568Z,16.28
2023-12-05T09:59:13.495Z,16.29
2023-12-05T10:00:13.446Z,16.31
2023-12-05T10:01:13.442Z,16.31
2023-12-05T10:02:13.533Z,16.31
2023-12-05T10:03:13.472Z,16.32
2023-12-05T10:04:13.639Z,16.32
2023-12-05T10:05:13.487Z,16.32
2023-12-05T10:06:13.481Z,16.32
2023-12-05T10:07:13.372Z,16.35
2023-12-05T10:08:13.418Z,16.35
2023-12-05T10:09:13.355Z,16.35
2023-12-05T10:10:13.369Z,16.35
2023-12-05T10:11:13.486Z,16.35
2023-12-05T10:12:13.462Z,16.33
2023-12-05T10:13:13.331Z,16.35
2023-12-05T10:14:13.646Z,16.35
2023-12-05T10:15:13.290Z,16.33
2023-12-05T10:16:13.300Z,16.33
2023-12-05T10:17:14.266Z,16.35
2023-12-05T10:18:13.364Z,16.35
2023-12-05T10:19:13.392Z,16.39
2023-12-05T10:20:14.355Z,16.38
2023-12-05T10:21:13.276Z,16.39
2023-12-05T10:22:13.248Z,16.39
2023-12-05T10:23:13.232Z,16.41
2023-12-05T10:24:13.957Z,16.41
2023-12-05T10:25:13.192Z,16.41
2023-12-05T10:26:13.542Z,16.41
2023-12-05T10:27:13.204Z,16.42
2023-12-05T10:28:13.210Z,16.43
2023-12-05T10:29:13.172Z,16.42
2023-12-05T10:30:14.914Z,16.42
2023-12-05T10:31:13.174Z,16.46
2023-12-05T10:32:13.184Z,16.46
2023-12-05T10:33:13.544Z,16.43
2023-12-05T10:34:13.218Z,16.43
2023-12-05T10:35:13.172Z,16.42
2023-12-05T10:36:14.576Z,16.43
2023-12-05T10:37:13.091Z,16.43
2023-12-05T10:38:13.398Z,16.43
2023-12-05T10:39:13.226Z,16.46
2023-12-05T10:40:13.028Z,16.46
2023-12-05T10:41:13.131Z,16.47
2023-12-05T10:42:13.020Z,16.47
2023-12-05T10:43:13.034Z,16.47
2023-12-05T10:44:13.117Z,16.49
2023-12-05T10:45:13.100Z,16.49
2023-12-05T10:46:12.995Z,16.49
2023-12-05T10:47:12.973Z,16.50
2023-12-05T10:48:13.031Z,16.50
2023-12-05T10:49:13.064Z,16.50
2023-12-05T10:50:12.946Z,16.51
2023-12-05T10:51:13.144Z,16.51
2023-12-05T10:52:13.021Z,16.50
2023-12-05T10:53:12.878Z,16.49
2023-12-05T10:54:12.912Z,16.50
2023-12-05T10:55:12.908Z,16.47
2023-12-05T10:56:12.855Z,16.49
2023-12-05T10:57:12.972Z,16.49
2023-12-05T10:58:12.859Z,16.50
2023-12-05T10:59:12.947Z,16.47
2023-12-05T11:00:12.866Z,16.49
2023-12-05T11:01:13.029Z,16.47
2023-12-05T11:02:12.838Z,16.49
2023-12-05T11:03:12.904Z,16.49
2023-12-05T11:04:12.990Z,16.50
2023-12-05T11:05:12.801Z,16.50
2023-12-05T11:06:12.882Z,16.50
2023-12-05T11:07:12.885Z,16.49
2023-12-05T11:08:12.802Z,16.49
2023-12-05T11:09:12.736Z,16.47
2023-12-05T11:10:12.734Z,16.43
2023-12-05T11:11:12.703Z,16.43
2023-12-05T11:12:12.728Z,16.39
2023-12-05T11:13:12.671Z,16.36
2023-12-05T11:14:12.733Z,16.35
2023-12-05T11:15:12.710Z,16.32
2023-12-05T11:16:12.679Z,16.29
2023-12-05T11:17:12.621Z,16.28
2023-12-05T11:18:12.705Z,16.26
2023-12-05T11:19:12.785Z,16.23
2023-12-05T11:20:12.787Z,16.21
2023-12-05T11:21:12.589Z,16.20
2023-12-05T11:22:12.607Z,16.20
2023-12-05T11:23:12.577Z,16.16
2023-12-05T11:24:15.523Z,16.15
2023-12-05T11:25:12.582Z,16.10
2023-12-05T11:26:12.572Z,16.10
2023-12-05T11:27:12.577Z,16.09
2023-12-05T11:28:12.491Z,16.05
2023-12-05T11:29:12.568Z,16.04
2023-12-05T11:30:12.500Z,16.04
2023-12-05T11:31:12.666Z,16.02
2023-12-05T11:32:12.497Z,16.00
2023-12-05T11:33:12.543Z,15.98
2023-12-05T11:34:12.611Z,15.97
2023-12-05T11:35:12.628Z,15.97
2023-12-05T11:36:12.465Z,15.95
2023-12-05T11:37:12.410Z,15.94
2023-12-05T11:38:12.427Z,15.92
2023-12-05T11:39:12.421Z,15.92
2023-12-05T11:40:12.449Z,15.91
2023-12-05T11:41:12.423Z,15.90
2023-12-05T11:42:12.365Z,15.90
2023-12-05T11:43:12.385Z,15.90
2023-12-05T11:44:12.382Z,15.88
2023-12-05T11:45:12.338Z,15.90
2023-12-05T11:46:12.348Z,15.88
2023-12-05T11:47:12.316Z,15.88
2023-12-05T11:48:12.741Z,15.90
2023-12-05T11:49:12.443Z,15.88
2023-12-05T11:50:12.254Z,15.90
2023-12-05T11:51:12.253Z,15.88
2023-12-05T11:52:12.432Z,15.84
2023-12-05T11:53:12.247Z,15.83
2023-12-05T11:54:12.228Z,15.82
2023-12-05T11:55:12.233Z,15.80
2023-12-05T11:56:12.241Z,15.80
2023-12-05T11:57:12.214Z,15.80
2023-12-05T11:58:12.208Z,15.82
2023-12-05T11:59:12.191Z,15.84
2023-12-05T12:00:12.199Z,15.86
2023-12-05T12:01:12.223Z,15.90
2023-12-05T12:02:12.389Z,15.92
2023-12-05T12:03:12.372Z,15.92
2023-12-05T12:04:12.161Z,15.94
2023-12-05T12:05:12.142Z,15.97
2023-12-05T12:06:12.097Z,15.95
2023-12-05T12:07:12.122Z,16.00
2023-12-05T12:08:12.098Z,16.01
2023-12-05T12:09:12.108Z,16.02
2023-12-05T12:10:12.092Z,16.05
2023-12-05T12:11:12.046Z,16.08
2023-12-05T12:12:12.381Z,16.10
2023-12-05T12:13:12.037Z,16.10
2023-12-05T12:14:11.991Z,16.12
2023-12-05T12:15:12.020Z,16.15
2023-12-05T12:16:11.963Z,16.15
2023-12-05T12:17:11.959Z,16.16
2023-12-05T12:18:12.091Z,16.17
2023-12-05T12:19:12.129Z,16.20
2023-12-05T12:20:11.985Z,16.20
2023-12-05T12:21:11.968Z,16.20
2023-12-05T12:22:12.198Z,16.23
2023-12-05T12:23:11.965Z,16.21
2023-12-05T12:24:11.989Z,16.21
2023-12-05T12:25:11.914Z,16.23
2023-12-05T12:26:11.939Z,16.24
2023-12-05T12:27:11.852Z,16.26
2023-12-05T12:28:11.890Z,16.24
2023-12-05T12:29:11.873Z,16.28
2023-12-05T12:30:14.022Z,16.24
2023-12-05T12:31:11.873Z,16.26
2023-12-05T12:32:12.473Z,16.26
2023-12-05T12:33:11.947Z,16.28
2023-12-05T12:34:11.871Z,16.26
2023-12-05T12:35:11.773Z,16.28
2023-12-05T12:36:12.284Z,16.26
2023-12-05T12:37:17.940Z,16.28
2023-12-05T12:38:12.762Z,16.28
2023-12-05T12:39:11.738Z,16.29
2023-12-05T12:40:12.611Z,16.29
2023-12-05T12:41:12.830Z,16.29
2023-12-05T12:42:12.086Z,16.31
2023-12-05T12:43:11.747Z,16.31
2023-12-05T12:44:11.729Z,16.31
2023-12-05T12:45:11.675Z,16.31
2023-12-05T12:46:11.666Z,16.28
2023-12-05T12:47:13.145Z,16.28
2023-12-05T12:48:11.707Z,16.28
2023-12-05T12:49:11.865Z,16.29
2023-12-05T12:50:11.651Z,16.28
2023-12-05T12:51:14.842Z,16.28
2023-12-05T12:52:11.939Z,16.29